sensor_id;sensor_type;location;lat;lon;timestamp;temperature;humidity
23991;DHT22;12205;50.600;4.608;2022-11-23T00:02:22;8.10;99.90
23991;DHT22;12205;50.600;4.608;2022-11-23T00:04:49;8.10;99.90
23991;DHT22;12205;50.600;4.608;2022-11-23T00:07:16;8.10;99.90
23991;DHT22;12205;50.600;4.608;2022-11-23T00:09:44;8.10;99.90
23991;DHT22;12205;50.600;4.608;2022-11-23T00:12:11;8.10;99.90
23991;DHT22;12205;50.600;4.608;2022-11-23T00:14:38;8.10;99.90
23991;DHT22;12205;50.600;4.608;2022-11-23T00:17:06;8.10;99.90
23991;DHT22;12205;50.600;4.608;2022-11-23T00:19:33;8.10;99.90
23991;DHT22;12205;50.600;4.608;2022-11-23T00:22:00;8.20;99.90
23991;DHT22;12205;50.600;4.608;2022-11-23T00:24:27;8.20;99.90
23991;DHT22;12205;50.600;4.608;2022-11-23T00:26:54;8.10;99.90
23991;DHT22;12205;50.600;4.608;2022-11-23T00:29:22;8.20;99.90
23991;DHT22;12205;50.600;4.608;2022-11-23T00:31:49;8.20;99.90
23991;DHT22;12205;50.600;4.608;2022-11-23T00:34:17;8.20;99.90
23991;DHT22;12205;50.600;4.608;2022-11-23T00:36:44;8.20;99.90
23991;DHT22;12205;50.600;4.608;2022-11-23T00:39:12;8.30;99.90
23991;DHT22;12205;50.600;4.608;2022-11-23T00:41:40;8.30;99.90
23991;DHT22;12205;50.600;4.608;2022-11-23T00:44:07;8.30;99.90
23991;DHT22;12205;50.600;4.608;2022-11-23T00:46:34;8.20;99.90
23991;DHT22;12205;50.600;4.608;2022-11-23T00:49:03;8.20;99.90
23991;DHT22;12205;50.600;4.608;2022-11-23T00:51:34;8.20;99.90
23991;DHT22;12205;50.600;4.608;2022-11-23T00:54:03;8.20;99.90
23991;DHT22;12205;50.600;4.608;2022-11-23T00:56:33;8.20;99.90
23991;DHT22;12205;50.600;4.608;2022-11-23T00:59:01;8.10;99.90
23991;DHT22;12205;50.600;4.608;2022-11-23T01:01:31;8.20;99.90
23991;DHT22;12205;50.600;4.608;2022-11-23T01:04:03;8.10;99.90
23991;DHT22;12205;50.600;4.608;2022-11-23T01:06:34;8.10;99.90
23991;DHT22;12205;50.600;4.608;2022-11-23T01:09:04;8.10;99.90
23991;DHT22;12205;50.600;4.608;2022-11-23T01:11:34;8.20;99.90
23991;DHT22;12205;50.600;4.608;2022-11-23T01:14:01;8.20;99.90
23991;DHT22;12205;50.600;4.608;2022-11-23T01:16:30;8.20;99.90
23991;DHT22;12205;50.600;4.608;2022-11-23T01:19:00;8.20;99.90
23991;DHT22;12205;50.600;4.608;2022-11-23T01:21:29;8.20;99.90
23991;DHT22;12205;50.600;4.608;2022-11-23T01:24:00;8.30;99.90
23991;DHT22;12205;50.600;4.608;2022-11-23T01:26:30;8.30;99.90
23991;DHT22;12205;50.600;4.608;2022-11-23T01:28:57;8.30;99.90
23991;DHT22;12205;50.600;4.608;2022-11-23T01:31:25;8.30;99.90
23991;DHT22;12205;50.600;4.608;2022-11-23T01:33:53;8.40;99.90
23991;DHT22;12205;50.600;4.608;2022-11-23T01:36:22;8.40;99.90
23991;DHT22;12205;50.600;4.608;2022-11-23T01:38:51;8.40;99.90
23991;DHT22;12205;50.600;4.608;2022-11-23T01:41:23;8.40;99.90
23991;DHT22;12205;50.600;4.608;2022-11-23T01:43:52;8.40;99.90
23991;DHT22;12205;50.600;4.608;2022-11-23T01:46:20;8.40;99.90
23991;DHT22;12205;50.600;4.608;2022-11-23T01:48:50;8.40;99.90
23991;DHT22;12205;50.600;4.608;2022-11-23T01:51:23;8.40;99.90
23991;DHT22;12205;50.600;4.608;2022-11-23T01:53:55;8.50;99.90
23991;DHT22;12205;50.600;4.608;2022-11-23T01:56:30;8.50;99.90
23991;DHT22;12205;50.600;4.608;2022-11-23T01:59:04;8.40;99.90
23991;DHT22;12205;50.600;4.608;2022-11-23T02:01:35;8.30;99.90
23991;DHT22;12205;50.600;4.608;2022-11-23T02:04:03;8.40;99.90
23991;DHT22;12205;50.600;4.608;2022-11-23T02:06:34;8.40;99.90
23991;DHT22;12205;50.600;4.608;2022-11-23T02:09:02;8.40;99.90
23991;DHT22;12205;50.600;4.608;2022-11-23T02:11:30;8.40;99.90
23991;DHT22;12205;50.600;4.608;2022-11-23T02:13:57;8.40;99.90
23991;DHT22;12205;50.600;4.608;2022-11-23T02:16:25;8.40;99.90
23991;DHT22;12205;50.600;4.608;2022-11-23T02:18:52;8.30;99.90
23991;DHT22;12205;50.600;4.608;2022-11-23T02:21:21;8.30;99.90
23991;DHT22;12205;50.600;4.608;2022-11-23T02:23:56;8.30;99.90
23991;DHT22;12205;50.600;4.608;2022-11-23T02:26:30;8.40;99.90
23991;DHT22;12205;50.600;4.608;2022-11-23T02:29:05;8.30;99.90
23991;DHT22;12205;50.600;4.608;2022-11-23T02:31:34;8.30;99.90
23991;DHT22;12205;50.600;4.608;2022-11-23T02:34:01;8.40;99.90
23991;DHT22;12205;50.600;4.608;2022-11-23T02:36:37;8.40;99.90
23991;DHT22;12205;50.600;4.608;2022-11-23T02:39:09;8.40;99.90
23991;DHT22;12205;50.600;4.608;2022-11-23T02:41:41;8.30;99.90
23991;DHT22;12205;50.600;4.608;2022-11-23T02:44:19;8.40;99.90
23991;DHT22;12205;50.600;4.608;2022-11-23T02:46:52;8.30;99.90
23991;DHT22;12205;50.600;4.608;2022-11-23T02:49:19;8.30;99.90
23991;DHT22;12205;50.600;4.608;2022-11-23T02:51:50;8.30;99.90
23991;DHT22;12205;50.600;4.608;2022-11-23T02:54:17;8.30;99.90
23991;DHT22;12205;50.600;4.608;2022-11-23T02:56:45;8.30;99.90
23991;DHT22;12205;50.600;4.608;2022-11-23T02:59:13;8.20;99.90
23991;DHT22;12205;50.600;4.608;2022-11-23T03:01:42;8.20;99.90
23991;DHT22;12205;50.600;4.608;2022-11-23T03:04:11;8.10;99.90
23991;DHT22;12205;50.600;4.608;2022-11-23T03:06:39;8.10;99.90
23991;DHT22;12205;50.600;4.608;2022-11-23T03:09:07;8.00;99.90
23991;DHT22;12205;50.600;4.608;2022-11-23T03:11:34;8.00;99.90
23991;DHT22;12205;50.600;4.608;2022-11-23T03:14:03;8.00;99.90
23991;DHT22;12205;50.600;4.608;2022-11-23T03:16:38;8.00;99.90
23991;DHT22;12205;50.600;4.608;2022-11-23T03:19:06;8.00;99.90
23991;DHT22;12205;50.600;4.608;2022-11-23T03:21:34;7.90;99.90
23991;DHT22;12205;50.600;4.608;2022-11-23T03:24:06;7.90;99.90
23991;DHT22;12205;50.600;4.608;2022-11-23T03:26:34;7.90;99.90
23991;DHT22;12205;50.600;4.608;2022-11-23T03:29:10;7.90;99.90
23991;DHT22;12205;50.600;4.608;2022-11-23T03:31:38;7.90;99.90
23991;DHT22;12205;50.600;4.608;2022-11-23T03:34:10;8.00;99.90
23991;DHT22;12205;50.600;4.608;2022-11-23T03:36:38;8.00;99.90
23991;DHT22;12205;50.600;4.608;2022-11-23T03:39:06;8.00;99.90
23991;DHT22;12205;50.600;4.608;2022-11-23T03:41:52;8.00;99.90
23991;DHT22;12205;50.600;4.608;2022-11-23T03:44:24;8.00;99.90
23991;DHT22;12205;50.600;4.608;2022-11-23T03:46:51;8.00;99.90
23991;DHT22;12205;50.600;4.608;2022-11-23T03:49:18;8.00;99.90
23991;DHT22;12205;50.600;4.608;2022-11-23T03:51:45;8.10;99.90
23991;DHT22;12205;50.600;4.608;2022-11-23T03:54:13;8.10;99.90
23991;DHT22;12205;50.600;4.608;2022-11-23T03:56:40;8.10;99.90
23991;DHT22;12205;50.600;4.608;2022-11-23T03:59:07;8.10;99.90
23991;DHT22;12205;50.600;4.608;2022-11-23T04:01:36;8.10;99.90
23991;DHT22;12205;50.600;4.608;2022-11-23T04:04:06;8.10;99.90
23991;DHT22;12205;50.600;4.608;2022-11-23T04:06:52;8.10;99.90
23991;DHT22;12205;50.600;4.608;2022-11-23T04:09:24;8.10;99.90
23991;DHT22;12205;50.600;4.608;2022-11-23T04:12:03;8.10;99.90
23991;DHT22;12205;50.600;4.608;2022-11-23T04:14:31;8.20;99.90
23991;DHT22;12205;50.600;4.608;2022-11-23T04:17:00;8.10;99.90
23991;DHT22;12205;50.600;4.608;2022-11-23T04:19:28;8.20;99.90
23991;DHT22;12205;50.600;4.608;2022-11-23T04:21:56;8.20;99.90
23991;DHT22;12205;50.600;4.608;2022-11-23T04:24:26;8.20;99.90
23991;DHT22;12205;50.600;4.608;2022-11-23T04:26:56;8.20;99.90
23991;DHT22;12205;50.600;4.608;2022-11-23T04:29:23;8.20;99.90
23991;DHT22;12205;50.600;4.608;2022-11-23T04:31:53;8.10;99.90
23991;DHT22;12205;50.600;4.608;2022-11-23T04:34:22;8.10;99.90
23991;DHT22;12205;50.600;4.608;2022-11-23T04:36:52;8.00;99.90
23991;DHT22;12205;50.600;4.608;2022-11-23T04:39:26;8.10;99.90
23991;DHT22;12205;50.600;4.608;2022-11-23T04:42:06;8.10;99.90
23991;DHT22;12205;50.600;4.608;2022-11-23T04:44:33;8.10;99.90
23991;DHT22;12205;50.600;4.608;2022-11-23T04:47:03;8.10;99.90
23991;DHT22;12205;50.600;4.608;2022-11-23T04:49:36;8.10;99.90
23991;DHT22;12205;50.600;4.608;2022-11-23T04:52:04;8.10;99.90
23991;DHT22;12205;50.600;4.608;2022-11-23T04:54:38;8.10;99.90
23991;DHT22;12205;50.600;4.608;2022-11-23T04:57:07;8.10;99.90
23991;DHT22;12205;50.600;4.608;2022-11-23T04:59:37;8.10;99.90
23991;DHT22;12205;50.600;4.608;2022-11-23T05:02:04;8.10;99.90
23991;DHT22;12205;50.600;4.608;2022-11-23T05:04:38;8.00;99.90
23991;DHT22;12205;50.600;4.608;2022-11-23T05:07:06;8.00;99.90
23991;DHT22;12205;50.600;4.608;2022-11-23T05:09:34;8.00;99.90
23991;DHT22;12205;50.600;4.608;2022-11-23T05:12:10;7.90;99.90
23991;DHT22;12205;50.600;4.608;2022-11-23T05:14:39;7.90;99.90
23991;DHT22;12205;50.600;4.608;2022-11-23T05:17:08;7.80;99.90
23991;DHT22;12205;50.600;4.608;2022-11-23T05:19:38;7.80;99.90
23991;DHT22;12205;50.600;4.608;2022-11-23T05:22:06;7.70;99.90
23991;DHT22;12205;50.600;4.608;2022-11-23T05:24:35;7.70;99.90
23991;DHT22;12205;50.600;4.608;2022-11-23T05:27:07;7.70;99.90
23991;DHT22;12205;50.600;4.608;2022-11-23T05:29:35;7.70;99.90
23991;DHT22;12205;50.600;4.608;2022-11-23T05:32:04;7.60;99.90
23991;DHT22;12205;50.600;4.608;2022-11-23T05:34:32;7.60;99.90
23991;DHT22;12205;50.600;4.608;2022-11-23T05:37:03;7.60;99.90
23991;DHT22;12205;50.600;4.608;2022-11-23T05:39:30;7.50;99.90
23991;DHT22;12205;50.600;4.608;2022-11-23T05:41:59;7.50;99.90
23991;DHT22;12205;50.600;4.608;2022-11-23T05:44:31;7.50;99.90
23991;DHT22;12205;50.600;4.608;2022-11-23T05:46:59;7.40;99.90
23991;DHT22;12205;50.600;4.608;2022-11-23T05:49:29;7.40;99.90
23991;DHT22;12205;50.600;4.608;2022-11-23T05:51:57;7.30;99.90
23991;DHT22;12205;50.600;4.608;2022-11-23T05:54:27;7.30;99.90
23991;DHT22;12205;50.600;4.608;2022-11-23T05:57:02;7.30;99.90
23991;DHT22;12205;50.600;4.608;2022-11-23T05:59:38;7.20;99.90
23991;DHT22;12205;50.600;4.608;2022-11-23T06:02:09;7.20;99.90
23991;DHT22;12205;50.600;4.608;2022-11-23T06:04:36;7.10;99.90
23991;DHT22;12205;50.600;4.608;2022-11-23T06:07:07;7.10;99.90
23991;DHT22;12205;50.600;4.608;2022-11-23T06:09:54;7.10;99.90
23991;DHT22;12205;50.600;4.608;2022-11-23T06:12:21;7.10;99.90
23991;DHT22;12205;50.600;4.608;2022-11-23T06:14:48;7.00;99.90
23991;DHT22;12205;50.600;4.608;2022-11-23T06:17:21;7.00;99.90
23991;DHT22;12205;50.600;4.608;2022-11-23T06:19:49;6.90;99.90
23991;DHT22;12205;50.600;4.608;2022-11-23T06:22:17;6.80;99.90
23991;DHT22;12205;50.600;4.608;2022-11-23T06:25:05;6.80;99.90
23991;DHT22;12205;50.600;4.608;2022-11-23T06:28:00;6.70;99.90
23991;DHT22;12205;50.600;4.608;2022-11-23T06:30:38;6.70;99.90
23991;DHT22;12205;50.600;4.608;2022-11-23T06:33:06;6.70;99.90
23991;DHT22;12205;50.600;4.608;2022-11-23T06:35:51;6.60;99.90
23991;DHT22;12205;50.600;4.608;2022-11-23T06:38:19;6.60;99.90
23991;DHT22;12205;50.600;4.608;2022-11-23T06:40:58;6.60;99.90
23991;DHT22;12205;50.600;4.608;2022-11-23T06:43:28;6.50;99.90
23991;DHT22;12205;50.600;4.608;2022-11-23T06:45:56;6.50;99.90
23991;DHT22;12205;50.600;4.608;2022-11-23T06:48:27;6.50;99.90
23991;DHT22;12205;50.600;4.608;2022-11-23T06:50:57;6.40;99.90
23991;DHT22;12205;50.600;4.608;2022-11-23T06:53:26;6.40;99.90
23991;DHT22;12205;50.600;4.608;2022-11-23T06:56:00;6.40;99.90
23991;DHT22;12205;50.600;4.608;2022-11-23T06:58:30;6.30;99.90
23991;DHT22;12205;50.600;4.608;2022-11-23T07:01:00;6.30;99.90
23991;DHT22;12205;50.600;4.608;2022-11-23T07:03:32;6.20;99.90
23991;DHT22;12205;50.600;4.608;2022-11-23T07:06:05;6.20;99.90
23991;DHT22;12205;50.600;4.608;2022-11-23T07:08:35;6.20;99.90
23991;DHT22;12205;50.600;4.608;2022-11-23T07:11:20;6.20;99.90
23991;DHT22;12205;50.600;4.608;2022-11-23T07:13:47;6.20;99.90
23991;DHT22;12205;50.600;4.608;2022-11-23T07:16:14;6.10;99.90
23991;DHT22;12205;50.600;4.608;2022-11-23T07:18:41;6.10;99.90
23991;DHT22;12205;50.600;4.608;2022-11-23T07:21:08;6.10;99.90
23991;DHT22;12205;50.600;4.608;2022-11-23T07:23:36;6.10;99.90
23991;DHT22;12205;50.600;4.608;2022-11-23T07:26:06;6.10;99.90
23991;DHT22;12205;50.600;4.608;2022-11-23T07:28:35;6.10;99.90
23991;DHT22;12205;50.600;4.608;2022-11-23T07:31:02;6.20;99.90
23991;DHT22;12205;50.600;4.608;2022-11-23T07:33:30;6.20;99.90
23991;DHT22;12205;50.600;4.608;2022-11-23T07:36:00;6.20;99.90
23991;DHT22;12205;50.600;4.608;2022-11-23T07:38:28;6.20;99.90
23991;DHT22;12205;50.600;4.608;2022-11-23T07:40:55;6.20;99.90
23991;DHT22;12205;50.600;4.608;2022-11-23T07:43:51;6.30;99.90
23991;DHT22;12205;50.600;4.608;2022-11-23T07:46:18;6.40;99.90
23991;DHT22;12205;50.600;4.608;2022-11-23T07:48:45;6.50;99.90
23991;DHT22;12205;50.600;4.608;2022-11-23T07:51:12;6.50;99.90
23991;DHT22;12205;50.600;4.608;2022-11-23T07:53:40;6.60;99.90
23991;DHT22;12205;50.600;4.608;2022-11-23T07:56:07;6.60;99.90
23991;DHT22;12205;50.600;4.608;2022-11-23T07:58:34;6.80;99.90
23991;DHT22;12205;50.600;4.608;2022-11-23T08:01:03;6.80;99.90
23991;DHT22;12205;50.600;4.608;2022-11-23T08:03:30;6.90;99.90
23991;DHT22;12205;50.600;4.608;2022-11-23T08:05:57;6.90;99.90
23991;DHT22;12205;50.600;4.608;2022-11-23T08:08:24;7.00;99.90
23991;DHT22;12205;50.600;4.608;2022-11-23T08:10:52;7.10;99.90
23991;DHT22;12205;50.600;4.608;2022-11-23T08:13:19;7.10;99.90
23991;DHT22;12205;50.600;4.608;2022-11-23T08:15:46;7.20;99.90
23991;DHT22;12205;50.600;4.608;2022-11-23T08:18:16;7.20;99.90
23991;DHT22;12205;50.600;4.608;2022-11-23T08:20:43;7.30;99.90
23991;DHT22;12205;50.600;4.608;2022-11-23T08:23:10;7.30;99.90
23991;DHT22;12205;50.600;4.608;2022-11-23T08:25:37;7.40;99.90
23991;DHT22;12205;50.600;4.608;2022-11-23T08:28:05;7.40;99.90
23991;DHT22;12205;50.600;4.608;2022-11-23T08:30:33;7.50;99.90
23991;DHT22;12205;50.600;4.608;2022-11-23T08:33:01;7.50;99.90
23991;DHT22;12205;50.600;4.608;2022-11-23T08:35:32;7.60;99.90
23991;DHT22;12205;50.600;4.608;2022-11-23T08:37:59;7.60;99.90
23991;DHT22;12205;50.600;4.608;2022-11-23T08:40:26;7.60;99.90
23991;DHT22;12205;50.600;4.608;2022-11-23T08:42:53;7.60;99.90
23991;DHT22;12205;50.600;4.608;2022-11-23T08:45:21;7.60;99.90
23991;DHT22;12205;50.600;4.608;2022-11-23T08:47:48;7.60;99.90
23991;DHT22;12205;50.600;4.608;2022-11-23T08:50:16;7.70;99.90
23991;DHT22;12205;50.600;4.608;2022-11-23T08:52:45;7.70;99.90
23991;DHT22;12205;50.600;4.608;2022-11-23T08:55:12;7.70;99.90
23991;DHT22;12205;50.600;4.608;2022-11-23T08:57:39;7.70;99.90
23991;DHT22;12205;50.600;4.608;2022-11-23T09:00:08;7.70;99.90
23991;DHT22;12205;50.600;4.608;2022-11-23T09:02:35;7.80;99.90
23991;DHT22;12205;50.600;4.608;2022-11-23T09:05:03;7.90;99.90
23991;DHT22;12205;50.600;4.608;2022-11-23T09:07:32;7.90;99.90
23991;DHT22;12205;50.600;4.608;2022-11-23T09:10:00;7.90;99.90
23991;DHT22;12205;50.600;4.608;2022-11-23T09:12:27;7.90;99.90
23991;DHT22;12205;50.600;4.608;2022-11-23T09:14:54;7.90;99.90
23991;DHT22;12205;50.600;4.608;2022-11-23T09:17:21;7.90;99.90
23991;DHT22;12205;50.600;4.608;2022-11-23T09:19:49;7.90;99.90
23991;DHT22;12205;50.600;4.608;2022-11-23T09:22:16;7.90;99.90
23991;DHT22;12205;50.600;4.608;2022-11-23T09:24:43;8.00;99.90
23991;DHT22;12205;50.600;4.608;2022-11-23T09:27:11;8.00;99.90
23991;DHT22;12205;50.600;4.608;2022-11-23T09:29:38;8.10;99.90
23991;DHT22;12205;50.600;4.608;2022-11-23T09:32:05;8.10;99.90
23991;DHT22;12205;50.600;4.608;2022-11-23T09:34:32;8.20;99.90
23991;DHT22;12205;50.600;4.608;2022-11-23T09:37:00;8.20;99.90
23991;DHT22;12205;50.600;4.608;2022-11-23T09:39:27;8.10;99.90
23991;DHT22;12205;50.600;4.608;2022-11-23T09:45:13;8.20;99.90
23991;DHT22;12205;50.600;4.608;2022-11-23T09:47:55;8.20;99.90
23991;DHT22;12205;50.600;4.608;2022-11-23T09:50:42;8.20;99.90
23991;DHT22;12205;50.600;4.608;2022-11-23T09:53:12;8.30;99.90
23991;DHT22;12205;50.600;4.608;2022-11-23T09:55:46;8.40;99.90
23991;DHT22;12205;50.600;4.608;2022-11-23T09:58:17;8.50;99.90
23991;DHT22;12205;50.600;4.608;2022-11-23T10:00:49;8.50;99.90
23991;DHT22;12205;50.600;4.608;2022-11-23T10:03:19;8.50;99.90
23991;DHT22;12205;50.600;4.608;2022-11-23T10:05:55;8.50;99.90
23991;DHT22;12205;50.600;4.608;2022-11-23T10:08:35;8.60;99.90
23991;DHT22;12205;50.600;4.608;2022-11-23T10:11:29;8.80;99.90
23991;DHT22;12205;50.600;4.608;2022-11-23T10:14:18;8.90;99.90
23991;DHT22;12205;50.600;4.608;2022-11-23T10:17:03;8.90;99.90
23991;DHT22;12205;50.600;4.608;2022-11-23T10:19:52;9.00;99.90
23991;DHT22;12205;50.600;4.608;2022-11-23T10:22:37;9.10;99.90
23991;DHT22;12205;50.600;4.608;2022-11-23T10:25:14;9.20;99.90
23991;DHT22;12205;50.600;4.608;2022-11-23T10:27:46;9.10;99.90
23991;DHT22;12205;50.600;4.608;2022-11-23T10:30:19;9.10;99.90
23991;DHT22;12205;50.600;4.608;2022-11-23T10:32:50;9.20;99.90
23991;DHT22;12205;50.600;4.608;2022-11-23T10:35:27;9.20;99.90
23991;DHT22;12205;50.600;4.608;2022-11-23T10:38:09;9.30;99.90
23991;DHT22;12205;50.600;4.608;2022-11-23T10:40:39;9.40;99.90
23991;DHT22;12205;50.600;4.608;2022-11-23T10:43:16;9.50;99.90
23991;DHT22;12205;50.600;4.608;2022-11-23T10:45:48;9.40;99.90
23991;DHT22;12205;50.600;4.608;2022-11-23T10:48:32;9.40;99.90
23991;DHT22;12205;50.600;4.608;2022-11-23T10:51:14;9.60;99.90
23991;DHT22;12205;50.600;4.608;2022-11-23T10:53:50;9.60;99.90
23991;DHT22;12205;50.600;4.608;2022-11-23T10:56:19;9.60;99.90
23991;DHT22;12205;50.600;4.608;2022-11-23T10:58:49;9.60;99.90
23991;DHT22;12205;50.600;4.608;2022-11-23T11:01:20;9.60;99.90
23991;DHT22;12205;50.600;4.608;2022-11-23T11:03:49;9.70;99.90
23991;DHT22;12205;50.600;4.608;2022-11-23T11:06:24;9.80;99.90
23991;DHT22;12205;50.600;4.608;2022-11-23T11:08:54;9.80;99.90
23991;DHT22;12205;50.600;4.608;2022-11-23T11:11:25;9.80;99.90
23991;DHT22;12205;50.600;4.608;2022-11-23T11:14:04;9.90;99.90
23991;DHT22;12205;50.600;4.608;2022-11-23T11:16:46;10.00;99.90
23991;DHT22;12205;50.600;4.608;2022-11-23T11:19:25;10.10;99.90
23991;DHT22;12205;50.600;4.608;2022-11-23T11:21:53;10.20;99.90
23991;DHT22;12205;50.600;4.608;2022-11-23T11:24:25;10.40;99.90
23991;DHT22;12205;50.600;4.608;2022-11-23T11:26:58;10.40;99.90
23991;DHT22;12205;50.600;4.608;2022-11-23T11:29:32;10.50;99.90
23991;DHT22;12205;50.600;4.608;2022-11-23T11:32:06;10.60;99.90
23991;DHT22;12205;50.600;4.608;2022-11-23T11:34:42;10.60;99.90
23991;DHT22;12205;50.600;4.608;2022-11-23T11:37:17;10.50;99.90
23991;DHT22;12205;50.600;4.608;2022-11-23T11:39:55;10.60;99.90
23991;DHT22;12205;50.600;4.608;2022-11-23T11:42:34;10.50;99.90
23991;DHT22;12205;50.600;4.608;2022-11-23T11:45:10;10.50;99.90
23991;DHT22;12205;50.600;4.608;2022-11-23T11:47:46;10.60;99.90
23991;DHT22;12205;50.600;4.608;2022-11-23T11:50:23;10.60;99.90
23991;DHT22;12205;50.600;4.608;2022-11-23T11:52:55;10.60;99.90
23991;DHT22;12205;50.600;4.608;2022-11-23T11:55:32;10.60;99.90
23991;DHT22;12205;50.600;4.608;2022-11-23T11:58:10;10.60;99.90
23991;DHT22;12205;50.600;4.608;2022-11-23T12:00:41;10.60;99.90
23991;DHT22;12205;50.600;4.608;2022-11-23T12:03:17;10.60;99.90
23991;DHT22;12205;50.600;4.608;2022-11-23T12:05:50;10.60;99.90
23991;DHT22;12205;50.600;4.608;2022-11-23T12:08:23;10.60;99.90
23991;DHT22;12205;50.600;4.608;2022-11-23T12:10:57;10.60;99.90
23991;DHT22;12205;50.600;4.608;2022-11-23T12:13:29;10.60;99.90
23991;DHT22;12205;50.600;4.608;2022-11-23T12:16:06;10.60;99.90
23991;DHT22;12205;50.600;4.608;2022-11-23T12:18:59;10.60;99.90
23991;DHT22;12205;50.600;4.608;2022-11-23T12:21:56;10.50;99.90
23991;DHT22;12205;50.600;4.608;2022-11-23T12:24:49;10.50;99.90
23991;DHT22;12205;50.600;4.608;2022-11-23T12:27:32;10.50;99.90
23991;DHT22;12205;50.600;4.608;2022-11-23T12:30:19;10.40;99.90
23991;DHT22;12205;50.600;4.608;2022-11-23T12:39:39;10.10;99.90
23991;DHT22;12205;50.600;4.608;2022-11-23T12:42:23;9.90;99.90
23991;DHT22;12205;50.600;4.608;2022-11-23T12:45:07;9.80;99.90
23991;DHT22;12205;50.600;4.608;2022-11-23T12:47:50;9.60;99.90
23991;DHT22;12205;50.600;4.608;2022-11-23T12:50:29;9.50;99.90
23991;DHT22;12205;50.600;4.608;2022-11-23T12:53:18;9.50;99.90
23991;DHT22;12205;50.600;4.608;2022-11-23T12:56:02;9.40;99.90
23991;DHT22;12205;50.600;4.608;2022-11-23T12:58:38;9.30;99.90
23991;DHT22;12205;50.600;4.608;2022-11-23T13:01:13;9.20;99.90
23991;DHT22;12205;50.600;4.608;2022-11-23T13:04:18;9.10;99.90
23991;DHT22;12205;50.600;4.608;2022-11-23T13:07:42;9.20;99.90
23991;DHT22;12205;50.600;4.608;2022-11-23T13:10:50;9.10;99.90
23991;DHT22;12205;50.600;4.608;2022-11-23T13:13:47;8.90;99.90
23991;DHT22;12205;50.600;4.608;2022-11-23T13:16:39;8.80;99.90
23991;DHT22;12205;50.600;4.608;2022-11-23T13:19:39;8.70;99.90
23991;DHT22;12205;50.600;4.608;2022-11-23T13:22:39;8.70;99.90
23991;DHT22;12205;50.600;4.608;2022-11-23T13:25:20;8.60;99.90
23991;DHT22;12205;50.600;4.608;2022-11-23T13:28:01;8.50;99.90
23991;DHT22;12205;50.600;4.608;2022-11-23T13:30:32;8.50;99.90
23991;DHT22;12205;50.600;4.608;2022-11-23T13:36:47;8.40;99.90
23991;DHT22;12205;50.600;4.608;2022-11-23T13:43:14;8.40;99.90
23991;DHT22;12205;50.600;4.608;2022-11-23T13:45:44;8.30;99.90
23991;DHT22;12205;50.600;4.608;2022-11-23T13:48:17;8.30;99.90
23991;DHT22;12205;50.600;4.608;2022-11-23T13:50:56;8.20;99.90
23991;DHT22;12205;50.600;4.608;2022-11-23T13:53:28;8.20;99.90
23991;DHT22;12205;50.600;4.608;2022-11-23T13:56:14;8.20;99.90
23991;DHT22;12205;50.600;4.608;2022-11-23T13:58:53;8.20;99.90
23991;DHT22;12205;50.600;4.608;2022-11-23T14:01:57;8.20;99.90
23991;DHT22;12205;50.600;4.608;2022-11-23T14:04:48;8.10;99.90
23991;DHT22;12205;50.600;4.608;2022-11-23T14:07:16;8.10;99.90
23991;DHT22;12205;50.600;4.608;2022-11-23T14:09:50;8.10;99.90
23991;DHT22;12205;50.600;4.608;2022-11-23T14:12:28;8.10;99.90
23991;DHT22;12205;50.600;4.608;2022-11-23T14:15:06;8.20;99.90
23991;DHT22;12205;50.600;4.608;2022-11-23T14:21:11;8.10;99.90
23991;DHT22;12205;50.600;4.608;2022-11-23T14:27:08;8.10;99.90
23991;DHT22;12205;50.600;4.608;2022-11-23T14:30:13;8.10;99.90
23991;DHT22;12205;50.600;4.608;2022-11-23T14:32:58;8.10;99.90
23991;DHT22;12205;50.600;4.608;2022-11-23T14:35:42;8.10;99.90
23991;DHT22;12205;50.600;4.608;2022-11-23T14:41:29;8.10;99.90
23991;DHT22;12205;50.600;4.608;2022-11-23T14:44:01;8.10;99.90
23991;DHT22;12205;50.600;4.608;2022-11-23T14:46:32;8.10;99.90
23991;DHT22;12205;50.600;4.608;2022-11-23T14:49:03;8.10;99.90
23991;DHT22;12205;50.600;4.608;2022-11-23T14:51:32;8.10;99.90
23991;DHT22;12205;50.600;4.608;2022-11-23T14:54:07;8.00;99.90
23991;DHT22;12205;50.600;4.608;2022-11-23T14:56:38;8.10;99.90
23991;DHT22;12205;50.600;4.608;2022-11-23T14:59:14;8.20;99.90
23991;DHT22;12205;50.600;4.608;2022-11-23T15:01:50;8.30;99.90
23991;DHT22;12205;50.600;4.608;2022-11-23T15:04:24;8.50;99.90
23991;DHT22;12205;50.600;4.608;2022-11-23T15:06:58;8.60;99.90
23991;DHT22;12205;50.600;4.608;2022-11-23T15:09:40;8.70;99.90
23991;DHT22;12205;50.600;4.608;2022-11-23T15:12:21;8.60;99.90
23991;DHT22;12205;50.600;4.608;2022-11-23T15:14:50;8.60;99.90
23991;DHT22;12205;50.600;4.608;2022-11-23T15:17:20;8.70;99.90
23991;DHT22;12205;50.600;4.608;2022-11-23T15:19:56;8.60;99.90
23991;DHT22;12205;50.600;4.608;2022-11-23T15:22:24;8.60;99.90
23991;DHT22;12205;50.600;4.608;2022-11-23T15:24:53;8.60;99.90
23991;DHT22;12205;50.600;4.608;2022-11-23T15:27:24;8.70;99.90
23991;DHT22;12205;50.600;4.608;2022-11-23T15:29:54;8.60;99.90
23991;DHT22;12205;50.600;4.608;2022-11-23T15:32:26;8.60;99.90
23991;DHT22;12205;50.600;4.608;2022-11-23T15:34:55;8.60;99.90
23991;DHT22;12205;50.600;4.608;2022-11-23T15:37:24;8.50;99.90
23991;DHT22;12205;50.600;4.608;2022-11-23T15:39:54;8.50;99.90
23991;DHT22;12205;50.600;4.608;2022-11-23T15:42:24;8.40;99.90
23991;DHT22;12205;50.600;4.608;2022-11-23T15:44:52;8.40;99.90
23991;DHT22;12205;50.600;4.608;2022-11-23T15:47:22;8.30;99.90
23991;DHT22;12205;50.600;4.608;2022-11-23T15:49:57;8.30;99.90
23991;DHT22;12205;50.600;4.608;2022-11-23T15:52:28;8.20;99.90
23991;DHT22;12205;50.600;4.608;2022-11-23T15:55:02;8.20;99.90
23991;DHT22;12205;50.600;4.608;2022-11-23T15:57:31;8.10;99.90
23991;DHT22;12205;50.600;4.608;2022-11-23T16:00:01;8.10;99.90
23991;DHT22;12205;50.600;4.608;2022-11-23T16:02:37;8.10;99.90
23991;DHT22;12205;50.600;4.608;2022-11-23T16:05:12;8.00;99.90
23991;DHT22;12205;50.600;4.608;2022-11-23T16:07:54;8.00;99.90
23991;DHT22;12205;50.600;4.608;2022-11-23T16:10:23;8.00;99.90
23991;DHT22;12205;50.600;4.608;2022-11-23T16:12:53;7.90;99.90
23991;DHT22;12205;50.600;4.608;2022-11-23T16:15:38;7.90;99.90
23991;DHT22;12205;50.600;4.608;2022-11-23T16:18:20;7.90;99.90
23991;DHT22;12205;50.600;4.608;2022-11-23T16:20:53;7.90;99.90
23991;DHT22;12205;50.600;4.608;2022-11-23T16:23:23;7.90;99.90
23991;DHT22;12205;50.600;4.608;2022-11-23T16:25:55;7.80;99.90
23991;DHT22;12205;50.600;4.608;2022-11-23T16:28:27;7.80;99.90
23991;DHT22;12205;50.600;4.608;2022-11-23T16:30:56;7.80;99.90
23991;DHT22;12205;50.600;4.608;2022-11-23T16:33:24;7.80;99.90
23991;DHT22;12205;50.600;4.608;2022-11-23T16:35:53;7.70;99.90
23991;DHT22;12205;50.600;4.608;2022-11-23T16:38:21;7.70;99.90
23991;DHT22;12205;50.600;4.608;2022-11-23T16:40:49;7.70;99.90
23991;DHT22;12205;50.600;4.608;2022-11-23T16:43:17;7.80;99.90
23991;DHT22;12205;50.600;4.608;2022-11-23T16:45:46;7.80;99.90
23991;DHT22;12205;50.600;4.608;2022-11-23T16:48:39;7.80;99.90